Time;durP1;ratioP1;P1;durP2;ratioP2;P2;SDS_P1;SDS_P2;PMS_P1;PMS_P2;Temp;Humidity;BMP_temperature;BMP_pressure;BME280_temperature;BME280_humidity;BME280_pressure;Samples;Min_cycle;Max_cycle;Signal;HPM_P1;HPM_P2
2021/12/19 00:01:36;;;;;;;45.33;40.60;;;4.00;90.30;;;;;;5034151;28;20753;-72
2021/12/19 00:04:17;;;;;;;52.25;44.30;;;4.00;90.50;;;;;;5034168;28;20221;-71
2021/12/19 00:09:29;;;;;;;51.30;42.55;;;4.00;91.60;;;;;;5034216;28;20677;-72
2021/12/19 00:11:58;;;;;;;176.20;53.42;;;4.00;91.80;;;;;;5034192;28;20201;-72
2021/12/19 00:14:25;;;;;;;822.20;150.30;;;4.10;94.00;;;;;;5033932;28;20232;-72
2021/12/19 00:16:53;;;;;;;74.63;46.85;;;4.10;95.80;;;;;;5034048;28;20193;-72
2021/12/19 00:19:21;;;;;;;54.08;44.63;;;4.20;94.90;;;;;;5033929;28;20295;-72
2021/12/19 00:21:48;;;;;;;51.97;44.22;;;4.20;94.50;;;;;;5034169;28;20683;-72
2021/12/19 00:24:15;;;;;;;54.35;44.08;;;4.30;94.40;;;;;;5033705;28;20590;-72
2021/12/19 00:26:42;;;;;;;54.63;44.97;;;4.20;92.30;;;;;;5033744;28;20221;-72
2021/12/19 00:29:11;;;;;;;48.92;42.20;;;4.20;92.00;;;;;;5033430;28;20536;-72
2021/12/19 00:31:38;;;;;;;52.08;44.33;;;4.20;91.80;;;;;;5033703;28;20198;-72
2021/12/19 00:34:05;;;;;;;57.28;43.72;;;4.10;91.50;;;;;;5033636;28;20240;-72
2021/12/19 00:36:32;;;;;;;49.75;44.58;;;4.10;92.10;;;;;;5033557;28;20197;-72
2021/12/19 00:39:00;;;;;;;52.63;44.25;;;4.00;91.90;;;;;;5033424;28;20197;-72
2021/12/19 00:41:27;;;;;;;53.08;46.17;;;4.00;92.30;;;;;;5033513;28;20610;-72
2021/12/19 00:43:55;;;;;;;49.90;44.45;;;3.90;91.60;;;;;;5033382;28;20218;-72
2021/12/19 00:46:26;;;;;;;53.35;43.03;;;4.00;91.80;;;;;;5033517;28;20208;-72
2021/12/19 00:48:56;;;;;;;53.80;45.40;;;4.10;90.70;;;;;;5033502;28;20263;-72
2021/12/19 00:51:25;;;;;;;56.95;45.80;;;4.10;90.90;;;;;;5033193;28;20205;-72
2021/12/19 00:53:54;;;;;;;55.08;45.80;;;4.10;90.70;;;;;;5033154;28;20304;-72
2021/12/19 00:56:21;;;;;;;53.67;46.28;;;4.00;91.10;;;;;;5033198;28;20292;-72
2021/12/19 00:58:49;;;;;;;1233.03;192.43;;;3.90;91.60;;;;;;5032585;28;20194;-72
2021/12/19 01:01:16;;;;;;;54.72;45.70;;;3.90;92.90;;;;;;5033139;28;20194;-72
2021/12/19 01:03:47;;;;;;;112.97;51.97;;;3.90;97.20;;;;;;5032951;28;20217;-72
2021/12/19 01:06:16;;;;;;;54.95;44.90;;;4.00;96.50;;;;;;5033248;28;20205;-72
2021/12/19 01:08:43;;;;;;;59.60;47.13;;;3.90;95.30;;;;;;5032895;28;20650;-72
2021/12/19 01:11:11;;;;;;;55.83;46.80;;;4.00;95.00;;;;;;5032914;28;20197;-72
2021/12/19 01:13:38;;;;;;;55.40;43.70;;;4.10;94.00;;;;;;5032900;28;20221;-72
2021/12/19 01:16:06;;;;;;;52.22;45.83;;;4.20;93.00;;;;;;5032931;28;20194;-72
2021/12/19 01:18:33;;;;;;;61.30;47.22;;;4.20;92.80;;;;;;5032824;28;20280;-72
2021/12/19 01:21:01;;;;;;;57.20;45.40;;;4.20;92.10;;;;;;5032800;28;20197;-72
2021/12/19 01:23:28;;;;;;;62.20;46.22;;;4.30;92.00;;;;;;5032565;28;20220;-72
2021/12/19 01:25:55;;;;;;;63.65;48.58;;;4.30;95.50;;;;;;5032918;28;20207;-72
2021/12/19 01:28:21;;;;;;;149.77;52.15;;;4.30;96.10;;;;;;5032705;28;20217;-72
2021/12/19 01:30:49;;;;;;;59.00;45.85;;;4.30;98.90;;;;;;5032722;28;20223;-72
2021/12/19 01:33:16;;;;;;;63.75;46.33;;;4.40;97.10;;;;;;5032450;28;20197;-72
2021/12/19 01:35:43;;;;;;;129.98;54.00;;;4.40;95.90;;;;;;5032572;28;20208;-72
2021/12/19 01:38:11;;;;;;;253.13;58.83;;;4.30;96.70;;;;;;5032467;28;20285;-72
2021/12/19 01:40:38;;;;;;;65.30;48.17;;;4.30;96.60;;;;;;5032439;28;20658;-72
2021/12/19 01:43:05;;;;;;;58.15;45.35;;;4.30;95.70;;;;;;5032562;28;20682;-72
2021/12/19 01:45:34;;;;;;;53.42;45.33;;;4.30;95.00;;;;;;5032507;28;20193;-72
2021/12/19 01:48:03;;;;;;;57.22;46.30;;;4.20;94.20;;;;;;5032405;28;20590;-72
2021/12/19 01:50:33;;;;;;;263.02;64.75;;;4.30;94.10;;;;;;5032403;28;20201;-72
2021/12/19 01:53:00;;;;;;;144.23;48.45;;;4.30;94.00;;;;;;5032642;28;20204;-72
2021/12/19 01:55:29;;;;;;;54.35;44.15;;;4.20;93.80;;;;;;5032625;28;20203;-72
2021/12/19 01:57:56;;;;;;;58.22;43.30;;;4.10;93.90;;;;;;5032565;28;20199;-72
2021/12/19 02:00:27;;;;;;;358.13;71.00;;;4.20;95.20;;;;;;5032429;28;20205;-72
2021/12/19 02:02:55;;;;;;;56.63;45.53;;;4.30;94.80;;;;;;5032467;28;20201;-72
2021/12/19 02:05:23;;;;;;;52.50;43.00;;;4.30;93.30;;;;;;5032398;28;20622;-72
2021/12/19 02:07:52;;;;;;;55.95;43.03;;;4.10;92.20;;;;;;5032272;28;20240;-72
2021/12/19 02:10:20;;;;;;;61.22;47.45;;;4.00;92.70;;;;;;5035807;28;20200;-72
2021/12/19 02:12:50;;;;;;;644.53;97.53;;;4.00;93.00;;;;;;5036411;28;20197;-72
2021/12/19 02:15:20;;;;;;;56.60;43.05;;;4.00;94.50;;;;;;5036280;28;20225;-72
2021/12/19 02:17:49;;;;;;;57.47;42.45;;;4.10;96.70;;;;;;5036252;28;20658;-72
2021/12/19 02:20:18;;;;;;;55.47;44.50;;;4.10;94.90;;;;;;5036164;28;20201;-72
2021/12/19 02:22:45;;;;;;;55.90;44.28;;;4.00;93.70;;;;;;5036298;28;20193;-72
2021/12/19 02:25:14;;;;;;;52.28;43.17;;;3.90;93.10;;;;;;5035959;28;20725;-72
2021/12/19 02:27:41;;;;;;;49.80;40.42;;;3.70;93.30;;;;;;5035990;28;20586;-72
2021/12/19 02:30:10;;;;;;;48.25;39.42;;;3.60;93.60;;;;;;5035955;28;20212;-72
2021/12/19 02:32:39;;;;;;;44.13;39.05;;;3.70;93.60;;;;;;5036027;28;20658;-72
2021/12/19 02:35:10;;;;;;;44.05;37.53;;;3.60;92.70;;;;;;5035923;28;20221;-72
2021/12/19 02:48:48;;;;;;;41.95;35.60;;;3.30;94.10;;;;;;5035809;28;20585;-72
2021/12/19 02:51:15;;;;;;;41.67;35.47;;;3.30;93.70;;;;;;5035681;28;20205;-72
2021/12/19 02:53:44;;;;;;;40.13;35.60;;;3.10;94.40;;;;;;5035679;28;20224;-71
2021/12/19 02:56:13;;;;;;;41.17;34.95;;;3.20;94.60;;;;;;5035699;28;20193;-71
2021/12/19 02:58:42;;;;;;;38.08;34.13;;;3.30;94.00;;;;;;5035669;28;20200;-71
2021/12/19 03:01:13;;;;;;;36.08;32.28;;;3.30;93.60;;;;;;5035412;28;20208;-71
2021/12/19 03:03:40;;;;;;;38.25;34.15;;;3.20;93.90;;;;;;5035412;28;20308;-72
2021/12/19 03:06:07;;;;;;;38.60;34.28;;;3.30;94.40;;;;;;5035428;28;20193;-72
2021/12/19 03:08:36;;;;;;;36.55;32.95;;;3.40;94.30;;;;;;5035342;28;20217;-72
2021/12/19 03:11:46;;;;;;;37.80;33.80;;;3.50;93.80;;;;;;5035292;28;20193;-72
2021/12/19 03:19:38;;;;;;;36.45;32.65;;;3.50;93.70;;;;;;5035039;28;20303;-72
2021/12/19 03:22:05;;;;;;;34.75;31.30;;;3.60;93.80;;;;;;5034390;28;20203;-72
2021/12/19 03:24:32;;;;;;;38.30;34.30;;;3.70;93.30;;;;;;5034783;28;20256;-72
2021/12/19 03:27:00;;;;;;;36.38;32.47;;;3.70;93.10;;;;;;5035056;28;20197;-72
2021/12/19 03:29:27;;;;;;;32.90;29.80;;;3.80;93.20;;;;;;5034941;28;20217;-72
2021/12/19 03:31:54;;;;;;;36.67;31.48;;;3.80;93.10;;;;;;5034950;28;20573;-71
2021/12/19 03:34:22;;;;;;;34.75;31.20;;;3.80;93.30;;;;;;5034724;28;20235;-72
2021/12/19 03:36:51;;;;;;;36.88;32.95;;;3.80;93.30;;;;;;5034813;28;20633;-72
2021/12/19 03:39:26;;;;;;;35.72;32.10;;;3.80;93.10;;;;;;5034533;28;20288;-72
2021/12/19 03:41:56;;;;;;;35.88;32.22;;;3.90;92.90;;;;;;5034841;28;20196;-72
2021/12/19 03:44:24;;;;;;;35.03;31.63;;;4.00;92.50;;;;;;5034570;28;20670;-72
2021/12/19 03:46:52;;;;;;;34.42;30.92;;;4.00;91.90;;;;;;5034646;28;20291;-72
2021/12/19 03:49:19;;;;;;;34.42;30.92;;;4.10;91.70;;;;;;5034493;28;20237;-72
2021/12/19 03:51:48;;;;;;;33.95;30.58;;;4.00;91.60;;;;;;5034655;28;20205;-72
2021/12/19 03:54:15;;;;;;;32.55;29.45;;;4.00;91.40;;;;;;5034393;28;20618;-72
2021/12/19 03:56:42;;;;;;;32.60;29.50;;;4.00;91.30;;;;;;5034406;28;20730;-72
2021/12/19 03:59:09;;;;;;;32.92;29.60;;;4.10;91.50;;;;;;5034196;28;20200;-72
2021/12/19 04:01:38;;;;;;;33.28;29.90;;;4.00;91.40;;;;;;5034444;28;20288;-72
2021/12/19 04:04:05;;;;;;;34.13;30.58;;;4.00;91.50;;;;;;5034359;28;20221;-72
2021/12/19 04:06:32;;;;;;;1753.10;243.80;;;3.90;92.40;;;;;;5034265;28;20197;-72
2021/12/19 04:08:59;;;;;;;32.75;29.45;;;3.90;92.90;;;;;;5034243;28;20223;-72
2021/12/19 04:11:25;;;;;;;1341.97;166.55;;;3.80;93.70;;;;;;5034162;28;20562;-72
2021/12/19 04:13:53;;;;;;;625.85;89.75;;;3.90;93.70;;;;;;5034048;28;20248;-72
2021/12/19 04:16:20;;;;;;;32.55;29.17;;;3.80;95.10;;;;;;5034066;28;20197;-72
2021/12/19 04:18:48;;;;;;;42.17;30.15;;;3.80;95.90;;;;;;5034056;28;20532;-72
2021/12/19 04:21:15;;;;;;;30.65;27.75;;;3.80;93.60;;;;;;5033945;28;20300;-72
2021/12/19 04:23:42;;;;;;;310.30;48.35;;;3.70;93.10;;;;;;5033849;28;20229;-72
2021/12/19 04:26:09;;;;;;;31.58;28.45;;;3.70;94.50;;;;;;5033876;28;20200;-72
2021/12/19 04:28:36;;;;;;;36.88;30.90;;;3.80;94.00;;;;;;5033671;28;20221;-72
2021/12/19 04:31:04;;;;;;;32.35;29.35;;;3.80;94.00;;;;;;5033690;28;20202;-72
2021/12/19 04:33:32;;;;;;;32.92;29.63;;;3.80;94.40;;;;;;5032380;28;20304;-72
2021/12/19 04:36:03;;;;;;;31.77;28.45;;;3.80;93.50;;;;;;5033797;28;20197;-72
2021/12/19 04:39:09;;;;;;;33.47;30.15;;;3.70;93.00;;;;;;5033641;28;20204;-72
2021/12/19 04:53:07;;;;;;;35.13;30.50;;;4.00;93.90;;;;;;4977584;28;20249;-72
2021/12/19 04:58:43;;;;;;;461.83;70.13;;;3.90;92.70;;;;;;5033466;28;20712;-72
2021/12/19 05:01:20;;;;;;;35.13;31.45;;;3.80;96.60;;;;;;5033182;28;20247;-72
2021/12/19 05:03:57;;;;;;;31.75;29.05;;;3.70;93.20;;;;;;5033142;28;20213;-72
2021/12/19 05:06:45;;;;;;;31.15;28.30;;;3.70;92.50;;;;;;5033200;28;20197;-72
2021/12/19 05:14:54;;;;;;;31.50;28.30;;;3.30;92.50;;;;;;5026195;28;20216;-72
2021/12/19 05:17:25;;;;;;;1999.90;385.55;;;3.30;94.10;;;;;;5033015;28;20567;-72
2021/12/19 05:20:05;;;;;;;33.97;30.58;;;3.30;94.00;;;;;;5033016;28;20217;-72
2021/12/19 05:22:37;;;;;;;31.92;28.88;;;3.30;95.50;;;;;;5032984;28;20208;-72
2021/12/19 05:25:14;;;;;;;31.65;28.80;;;3.40;93.10;;;;;;5032636;28;20641;-72
2021/12/19 05:27:43;;;;;;;33.35;30.05;;;3.30;91.90;;;;;;5032975;28;20201;-72
2021/12/19 05:30:12;;;;;;;54.65;32.38;;;3.20;92.30;;;;;;5032641;28;20213;-72
2021/12/19 05:32:39;;;;;;;31.10;27.92;;;3.10;92.90;;;;;;5032901;28;20335;-72
2021/12/19 05:35:08;;;;;;;31.23;28.17;;;3.10;97.00;;;;;;5032628;28;20228;-72
2021/12/19 05:45:51;;;;;;;31.83;28.50;;;3.20;92.20;;;;;;5007138;28;20185;-72
2021/12/19 05:48:18;;;;;;;213.80;48.58;;;3.10;96.50;;;;;;5032547;28;20228;-71
2021/12/19 05:50:45;;;;;;;35.47;29.80;;;3.10;98.50;;;;;;5032646;28;20201;-72
2021/12/19 05:53:12;;;;;;;36.95;32.17;;;3.20;96.90;;;;;;5032394;28;20292;-71
2021/12/19 05:55:41;;;;;;;125.65;37.75;;;3.30;95.60;;;;;;5032669;28;20197;-71
2021/12/19 05:58:09;;;;;;;264.98;52.97;;;3.40;96.20;;;;;;5032595;28;20228;-71
2021/12/19 06:00:37;;;;;;;34.45;30.27;;;3.40;95.30;;;;;;5032356;28;20578;-72
2021/12/19 06:03:04;;;;;;;522.38;85.85;;;3.30;93.20;;;;;;5032377;28;20204;-72
2021/12/19 06:05:31;;;;;;;275.85;48.88;;;3.30;93.20;;;;;;5032500;28;20196;-72
2021/12/19 06:07:58;;;;;;;32.22;28.85;;;3.20;95.50;;;;;;5032350;28;20201;-72
2021/12/19 06:10:28;;;;;;;33.20;29.88;;;3.30;94.40;;;;;;5032161;28;20287;-72
2021/12/19 06:12:59;;;;;;;30.63;27.45;;;3.30;94.20;;;;;;5032381;28;20209;-72
2021/12/19 06:15:26;;;;;;;36.78;28.77;;;3.20;97.80;;;;;;5032344;28;20222;-72
2021/12/19 06:17:53;;;;;;;224.75;47.53;;;3.40;97.00;;;;;;5032368;28;20193;-72
2021/12/19 06:20:20;;;;;;;35.00;29.95;;;3.30;97.00;;;;;;5032222;28;20280;-72
2021/12/19 06:22:47;;;;;;;160.20;38.85;;;3.30;96.40;;;;;;5032419;28;20288;-72
2021/12/19 06:25:15;;;;;;;80.63;32.08;;;3.30;94.90;;;;;;5032113;28;20229;-72
2021/12/19 06:27:42;;;;;;;971.10;144.40;;;3.30;94.20;;;;;;5032169;28;20197;-72
2021/12/19 06:30:12;;;;;;;290.05;49.95;;;3.30;96.20;;;;;;5032024;28;20221;-72
2021/12/19 06:32:39;;;;;;;490.95;78.35;;;3.40;95.60;;;;;;5032525;28;20197;-72
2021/12/19 06:35:10;;;;;;;32.58;29.30;;;3.30;95.80;;;;;;5032195;28;20555;-71
2021/12/19 06:37:38;;;;;;;30.75;27.77;;;3.30;94.70;;;;;;5032066;28;20193;-71
2021/12/19 06:40:08;;;;;;;29.40;26.52;;;3.20;95.10;;;;;;5032039;28;20189;-72
2021/12/19 06:42:35;;;;;;;30.38;27.45;;;3.20;94.40;;;;;;5032151;28;20284;-72
2021/12/19 06:45:03;;;;;;;33.65;30.40;;;3.40;93.30;;;;;;5032082;28;20224;-72
2021/12/19 06:47:31;;;;;;;30.67;27.80;;;3.50;91.80;;;;;;5032019;28;20197;-72
2021/12/19 06:49:59;;;;;;;31.08;27.98;;;3.40;96.20;;;;;;5031906;28;20217;-72
2021/12/19 06:52:26;;;;;;;50.05;29.88;;;3.30;96.40;;;;;;5032162;28;20212;-72
2021/12/19 06:54:53;;;;;;;47.03;27.50;;;3.20;96.50;;;;;;5031909;28;20223;-72
2021/12/19 06:57:20;;;;;;;31.58;28.48;;;3.30;96.90;;;;;;5035465;28;20281;-72
2021/12/19 06:59:47;;;;;;;28.23;25.85;;;3.20;97.50;;;;;;5035443;28;20201;-72
2021/12/19 07:02:15;;;;;;;32.50;29.02;;;3.20;95.90;;;;;;5035566;28;20204;-72
2021/12/19 07:04:44;;;;;;;28.38;26.00;;;3.40;93.70;;;;;;5035515;28;20224;-72
2021/12/19 07:07:12;;;;;;;350.52;60.72;;;3.30;92.80;;;;;;5035342;28;20204;-72
2021/12/19 07:09:39;;;;;;;413.73;66.53;;;3.30;94.10;;;;;;5035139;28;20223;-72
2021/12/19 07:12:08;;;;;;;1092.70;149.93;;;3.20;93.90;;;;;;5035219;28;20212;-72
2021/12/19 07:14:35;;;;;;;1548.90;207.93;;;3.30;95.80;;;;;;5035514;28;20217;-71
2021/12/19 07:17:02;;;;;;;29.08;26.40;;;3.30;97.80;;;;;;5035317;28;20202;-72
2021/12/19 07:19:30;;;;;;;27.77;24.83;;;3.30;97.80;;;;;;5034940;28;20229;-72
2021/12/19 07:21:58;;;;;;;25.15;22.98;;;3.20;96.30;;;;;;5035152;28;20239;-72
2021/12/19 07:24:25;;;;;;;854.70;105.38;;;3.30;98.50;;;;;;5034942;28;20229;-72
2021/12/19 07:26:52;;;;;;;26.88;24.40;;;3.20;98.70;;;;;;5035046;28;20198;-72
2021/12/19 07:29:18;;;;;;;25.95;23.88;;;3.20;98.50;;;;;;5034809;28;20221;-72
2021/12/19 07:31:46;;;;;;;1238.95;160.23;;;3.30;97.60;;;;;;5035168;28;20201;-72
2021/12/19 07:34:13;;;;;;;23.17;21.27;;;3.30;97.70;;;;;;5034506;28;20302;-72
2021/12/19 07:36:43;;;;;;;26.65;23.70;;;3.20;98.40;;;;;;5034968;28;20544;-72
2021/12/19 07:39:22;;;;;;;144.98;34.58;;;3.30;97.40;;;;;;5034520;28;20198;-72
2021/12/19 07:41:49;;;;;;;24.25;22.30;;;3.30;97.70;;;;;;5034914;28;20251;-72
2021/12/19 07:44:16;;;;;;;937.00;127.90;;;3.30;96.70;;;;;;5034534;28;20785;-72
2021/12/19 07:46:44;;;;;;;1999.90;591.47;;;3.30;98.10;;;;;;5034558;28;20300;-72
2021/12/19 07:49:11;;;;;;;24.52;22.45;;;3.30;99.60;;;;;;5034586;28;20221;-72
2021/12/19 07:51:38;;;;;;;1999.90;472.95;;;3.20;99.30;;;;;;5034670;28;20300;-72
2021/12/19 07:54:04;;;;;;;1883.93;296.50;;;3.20;99.90;;;;;;5034337;28;20216;-72
2021/12/19 07:56:33;;;;;;;25.17;22.63;;;3.30;99.90;;;;;;5034569;28;20204;-72
2021/12/19 07:59:00;;;;;;;25.60;23.40;;;3.30;99.90;;;;;;5034407;28;20221;-72
2021/12/19 08:01:27;;;;;;;24.45;22.33;;;3.30;99.20;;;;;;5034286;28;20201;-72
2021/12/19 08:03:54;;;;;;;26.85;24.23;;;3.30;98.40;;;;;;5034216;28;20221;-72
2021/12/19 08:06:21;;;;;;;24.40;22.30;;;3.40;97.90;;;;;;5034190;28;20571;-72
2021/12/19 08:08:52;;;;;;;1185.57;160.02;;;3.50;97.80;;;;;;5034216;28;20200;-73
2021/12/19 08:14:04;;;;;;;76.68;28.17;;;3.40;99.90;;;;;;5034300;28;20208;-72
2021/12/19 08:16:31;;;;;;;24.52;22.30;;;3.40;99.70;;;;;;5034009;28;20197;-72
2021/12/19 08:18:58;;;;;;;571.92;85.32;;;3.40;98.40;;;;;;5034146;28;20540;-72
2021/12/19 08:21:25;;;;;;;24.65;22.65;;;3.40;99.00;;;;;;5033967;28;20693;-73
2021/12/19 08:23:52;;;;;;;202.35;41.67;;;3.50;99.40;;;;;;5033751;28;20225;-72
2021/12/19 08:26:19;;;;;;;361.27;53.50;;;3.50;99.90;;;;;;5033968;28;20256;-73
2021/12/19 08:28:46;;;;;;;1999.90;363.67;;;3.60;98.80;;;;;;5033915;28;20204;-72
2021/12/19 08:31:14;;;;;;;21.90;20.10;;;3.50;99.90;;;;;;5033883;28;20275;-72
2021/12/19 08:33:41;;;;;;;589.72;77.47;;;3.60;99.90;;;;;;5033453;28;20702;-72
2021/12/19 08:36:08;;;;;;;851.58;133.93;;;3.70;99.90;;;;;;5033821;28;20652;-72
2021/12/19 08:38:35;;;;;;;23.20;21.30;;;3.60;99.90;;;;;;5033676;28;20201;-72
2021/12/19 08:41:03;;;;;;;209.13;36.85;;;3.60;99.90;;;;;;5033517;28;20288;-72
2021/12/19 08:43:30;;;;;;;19.88;18.42;;;3.70;99.90;;;;;;5033609;28;20559;-72
2021/12/19 08:45:56;;;;;;;22.50;20.85;;;3.70;99.90;;;;;;5033573;28;20737;-72
2021/12/19 08:48:25;;;;;;;1999.90;685.42;;;3.80;98.30;;;;;;5033635;28;20201;-72
2021/12/19 08:50:53;;;;;;;21.50;19.77;;;3.70;98.70;;;;;;5033296;28;20327;-72
2021/12/19 08:53:20;;;;;;;47.47;22.50;;;3.70;99.90;;;;;;5033236;28;20201;-72
2021/12/19 08:55:47;;;;;;;23.65;21.60;;;3.80;99.10;;;;;;5033383;28;20414;-72
2021/12/19 08:58:14;;;;;;;22.40;20.60;;;3.80;97.30;;;;;;5033341;28;20201;-72
2021/12/19 09:00:41;;;;;;;21.75;20.13;;;3.90;95.90;;;;;;5033006;28;20201;-73
2021/12/19 09:03:09;;;;;;;21.70;20.10;;;3.90;95.90;;;;;;5033239;28;20207;-72
2021/12/19 09:05:37;;;;;;;20.88;19.48;;;3.90;94.50;;;;;;5033265;28;20197;-72
2021/12/19 09:08:05;;;;;;;24.40;21.92;;;4.00;94.50;;;;;;5033217;28;20210;-72
2021/12/19 09:10:32;;;;;;;1093.10;134.57;;;4.00;92.80;;;;;;5032972;28;20221;-72
2021/12/19 09:12:59;;;;;;;21.77;20.27;;;4.00;93.30;;;;;;5033190;28;20212;-73
2021/12/19 09:15:26;;;;;;;36.97;23.17;;;4.00;92.30;;;;;;5033104;28;20221;-72
2021/12/19 09:17:53;;;;;;;78.82;25.13;;;4.00;92.90;;;;;;5032866;28;20288;-73
2021/12/19 09:20:20;;;;;;;19.90;18.48;;;4.00;93.00;;;;;;5032527;28;20204;-72
2021/12/19 09:22:48;;;;;;;20.60;19.10;;;4.10;92.00;;;;;;5032985;28;20201;-72
2021/12/19 09:25:15;;;;;;;21.45;20.05;;;4.10;90.70;;;;;;5032799;28;20658;-72
2021/12/19 09:27:42;;;;;;;1999.90;311.70;;;4.10;90.90;;;;;;5032781;28;20566;-72
2021/12/19 09:30:09;;;;;;;19.77;18.48;;;4.10;92.50;;;;;;5032645;28;20217;-72
2021/12/19 09:32:36;;;;;;;21.05;19.35;;;4.20;92.20;;;;;;5032673;28;20197;-73
2021/12/19 09:35:03;;;;;;;177.82;31.60;;;4.20;91.90;;;;;;5032544;28;20224;-72
2021/12/19 09:37:35;;;;;;;19.45;18.30;;;4.30;91.80;;;;;;5032694;28;20201;-72
2021/12/19 09:40:04;;;;;;;21.45;19.95;;;4.30;92.50;;;;;;5032595;28;20692;-72
2021/12/19 09:42:34;;;;;;;26.92;24.25;;;4.40;91.10;;;;;;5032879;28;20201;-72
2021/12/19 09:45:02;;;;;;;21.08;19.58;;;4.50;90.40;;;;;;5032609;28;20217;-72
2021/12/19 09:47:29;;;;;;;21.77;20.25;;;4.40;90.10;;;;;;5032600;28;20197;-72
2021/12/19 09:49:58;;;;;;;19.23;17.92;;;4.50;90.10;;;;;;5032503;28;20677;-72
2021/12/19 09:52:25;;;;;;;19.70;18.40;;;4.40;95.40;;;;;;5032592;28;20193;-72
2021/12/19 09:54:53;;;;;;;47.03;23.25;;;4.40;93.80;;;;;;5032580;28;20225;-72
2021/12/19 09:57:21;;;;;;;19.60;18.35;;;4.40;92.20;;;;;;5032553;28;20247;-73
2021/12/19 09:59:48;;;;;;;21.95;20.45;;;4.50;91.70;;;;;;5032389;28;20546;-72
2021/12/19 10:02:16;;;;;;;22.75;21.27;;;4.40;90.90;;;;;;5032588;28;20197;-73
2021/12/19 10:04:44;;;;;;;22.80;20.92;;;4.40;89.90;;;;;;5032446;28;20227;-72
2021/12/19 10:07:14;;;;;;;20.70;19.30;;;4.60;91.70;;;;;;5032574;28;20205;-72
2021/12/19 10:09:55;;;;;;;40.88;20.77;;;4.80;92.30;;;;;;5032301;28;20224;-72
2021/12/19 10:12:38;;;;;;;200.60;36.40;;;5.00;93.10;;;;;;5032650;28;20291;-72
2021/12/19 10:15:09;;;;;;;26.50;20.80;;;4.90;93.60;;;;;;5032451;28;20221;-72
2021/12/19 10:17:37;;;;;;;18.92;17.73;;;5.00;91.90;;;;;;5032514;28;20601;-72
2021/12/19 10:20:07;;;;;;;20.67;19.38;;;5.00;90.90;;;;;;5032235;28;20193;-72
2021/12/19 10:22:35;;;;;;;19.60;18.48;;;5.10;90.70;;;;;;5032309;28;20201;-72
2021/12/19 10:25:17;;;;;;;19.67;18.58;;;5.20;89.30;;;;;;5032087;28;20230;-72
2021/12/19 10:27:47;;;;;;;204.15;33.17;;;5.20;89.00;;;;;;5032414;28;20244;-72
2021/12/19 10:30:21;;;;;;;1999.90;337.50;;;5.10;90.40;;;;;;5032259;28;20324;-72
2021/12/19 10:32:56;;;;;;;97.72;25.02;;;5.10;97.70;;;;;;5035951;28;20233;-72
2021/12/19 10:35:26;;;;;;;1225.70;151.10;;;5.10;97.10;;;;;;5035859;28;20303;-72
2021/12/19 10:37:53;;;;;;;55.53;22.67;;;5.10;99.30;;;;;;5035981;28;20197;-72
2021/12/19 10:40:20;;;;;;;18.42;17.35;;;5.00;96.00;;;;;;5035892;28;20193;-72
2021/12/19 10:42:53;;;;;;;19.13;18.02;;;5.00;94.60;;;;;;5036027;28;20287;-72
2021/12/19 10:45:33;;;;;;;20.42;19.13;;;5.10;91.70;;;;;;5035876;28;20225;-72
2021/12/19 10:48:19;;;;;;;21.13;19.92;;;5.20;91.30;;;;;;5035838;28;20208;-72
2021/12/19 10:50:49;;;;;;;21.92;19.50;;;5.30;85.40;;;;;;5035589;28;20217;-72
2021/12/19 10:53:17;;;;;;;20.30;19.00;;;5.10;88.00;;;;;;5035529;28;20562;-72
2021/12/19 10:55:46;;;;;;;20.80;19.60;;;5.10;88.90;;;;;;5035586;28;20681;-72
2021/12/19 10:58:25;;;;;;;20.00;18.80;;;5.20;85.60;;;;;;5035409;28;20208;-72
2021/12/19 11:01:04;;;;;;;21.30;20.10;;;5.10;85.70;;;;;;5035575;28;20246;-72
2021/12/19 11:03:44;;;;;;;20.98;19.77;;;5.00;83.40;;;;;;5035397;28;20221;-72
2021/12/19 11:06:21;;;;;;;21.95;20.65;;;4.90;83.90;;;;;;5035508;28;20197;-72
2021/12/19 11:08:49;;;;;;;40.90;21.88;;;4.80;84.70;;;;;;5035392;28;20247;-72
2021/12/19 11:11:39;;;;;;;21.65;20.35;;;4.90;85.00;;;;;;5035068;28;20213;-72
2021/12/19 11:14:07;;;;;;;21.13;19.85;;;4.80;85.20;;;;;;5035277;28;20313;-72
2021/12/19 11:16:35;;;;;;;19.95;18.85;;;4.70;86.10;;;;;;5035207;28;20211;-72
2021/12/19 11:19:02;;;;;;;21.23;20.02;;;4.70;90.50;;;;;;5034992;28;20288;-72
2021/12/19 11:21:33;;;;;;;21.23;19.92;;;5.00;88.10;;;;;;5035012;28;20220;-72
2021/12/19 11:24:00;;;;;;;22.38;21.00;;;5.10;84.20;;;;;;5034927;28;20287;-72
2021/12/19 11:26:29;;;;;;;20.75;19.48;;;5.10;84.50;;;;;;5035117;28;20233;-72
2021/12/19 11:28:57;;;;;;;18.23;17.02;;;5.00;86.50;;;;;;5035057;28;20197;-72
2021/12/19 11:31:28;;;;;;;20.52;19.25;;;4.90;92.90;;;;;;5034814;28;20609;-72
2021/12/19 11:34:19;;;;;;;624.97;79.22;;;5.00;89.20;;;;;;5034596;28;20218;-72
2021/12/19 11:36:50;;;;;;;20.38;19.02;;;4.70;89.60;;;;;;5035031;28;20570;-72
2021/12/19 11:39:18;;;;;;;18.40;17.40;;;4.80;93.50;;;;;;5034643;28;20570;-72
2021/12/19 11:42:09;;;;;;;20.45;19.02;;;5.00;90.20;;;;;;5034192;28;20204;-72
2021/12/19 11:44:46;;;;;;;20.15;19.05;;;4.90;86.90;;;;;;5034712;28;20716;-72
2021/12/19 11:47:35;;;;;;;21.23;20.02;;;4.90;88.20;;;;;;5034745;28;20201;-73
2021/12/19 11:50:15;;;;;;;21.65;20.20;;;4.90;85.50;;;;;;5034336;28;20284;-73
2021/12/19 11:52:41;;;;;;;22.75;21.35;;;4.90;84.80;;;;;;5034698;28;20232;-73
2021/12/19 11:55:20;;;;;;;22.50;21.30;;;4.70;84.00;;;;;;5034512;28;20308;-73
2021/12/19 11:58:18;;;;;;;22.92;21.58;;;4.60;84.80;;;;;;5034413;28;20201;-72
2021/12/19 12:00:50;;;;;;;22.75;21.40;;;4.40;85.30;;;;;;5034345;28;20221;-73
2021/12/19 12:03:43;;;;;;;21.85;20.55;;;4.30;86.10;;;;;;5034389;28;20229;-73
2021/12/19 12:06:40;;;;;;;20.90;19.60;;;4.20;86.40;;;;;;5034345;28;20212;-72
2021/12/19 12:09:21;;;;;;;35.08;23.27;;;4.20;86.90;;;;;;5034250;28;20198;-72
2021/12/19 12:12:26;;;;;;;693.30;90.10;;;4.30;87.90;;;;;;5034137;28;20217;-73
2021/12/19 12:14:58;;;;;;;49.30;22.13;;;4.50;94.30;;;;;;5034133;28;20221;-72
2021/12/19 12:17:33;;;;;;;21.88;20.48;;;4.50;89.40;;;;;;5034047;28;20658;-72
2021/12/19 12:20:25;;;;;;;25.13;20.02;;;4.50;92.80;;;;;;5033987;28;20203;-72
2021/12/19 12:22:58;;;;;;;20.75;19.45;;;4.60;94.10;;;;;;5031581;28;20203;-73
2021/12/19 12:25:40;;;;;;;21.10;19.80;;;4.70;93.40;;;;;;5033820;28;20228;-73
2021/12/19 12:28:09;;;;;;;20.65;19.45;;;4.50;86.20;;;;;;5033996;28;20207;-72
2021/12/19 12:30:40;;;;;;;21.55;20.35;;;4.50;85.90;;;;;;5033651;28;20248;-73
2021/12/19 12:33:09;;;;;;;20.75;19.55;;;4.40;85.90;;;;;;5033648;28;20201;-73
2021/12/19 12:35:40;;;;;;;24.48;22.73;;;4.50;85.60;;;;;;5033764;28;20225;-73
2021/12/19 12:38:08;;;;;;;49.00;22.90;;;4.40;85.20;;;;;;5033519;28;20197;-72
2021/12/19 12:40:52;;;;;;;21.50;20.20;;;4.30;86.00;;;;;;5033492;28;20193;-73
2021/12/19 12:43:21;;;;;;;22.20;20.90;;;4.20;87.70;;;;;;5033549;28;20724;-72
2021/12/19 12:46:06;;;;;;;23.13;21.63;;;4.30;87.30;;;;;;5033513;28;20619;-73
2021/12/19 12:48:42;;;;;;;21.20;19.58;;;4.40;87.10;;;;;;5033448;28;20239;-73
2021/12/19 12:51:18;;;;;;;21.58;20.27;;;4.40;89.30;;;;;;5033457;28;20271;-72
2021/12/19 12:53:47;;;;;;;25.70;20.13;;;4.60;89.10;;;;;;5032477;28;20213;-72
2021/12/19 12:56:17;;;;;;;22.15;20.55;;;4.70;92.20;;;;;;5033427;28;20201;-72
2021/12/19 12:58:47;;;;;;;86.32;25.52;;;4.70;90.60;;;;;;5033348;28;20197;-72
2021/12/19 13:01:21;;;;;;;23.98;22.27;;;4.80;91.20;;;;;;5033242;28;20735;-72
2021/12/19 13:03:56;;;;;;;26.00;23.92;;;4.80;87.10;;;;;;5033181;28;20279;-72
2021/12/19 13:06:53;;;;;;;26.65;24.42;;;4.60;85.40;;;;;;5033130;28;20203;-72
2021/12/19 13:09:24;;;;;;;25.60;23.80;;;4.40;86.50;;;;;;4998753;28;20209;-72
2021/12/19 13:11:53;;;;;;;24.73;22.92;;;4.30;86.60;;;;;;5032932;28;20228;-72
2021/12/19 13:14:24;;;;;;;24.30;22.60;;;4.20;87.20;;;;;;5033033;28;20213;-72
2021/12/19 13:16:53;;;;;;;23.98;22.38;;;4.20;87.30;;;;;;5033094;28;20667;-72
2021/12/19 13:19:54;;;;;;;24.20;21.83;;;4.30;87.70;;;;;;5032926;28;20228;-73
2021/12/19 13:22:26;;;;;;;22.05;20.55;;;4.40;89.10;;;;;;4972159;28;20217;-72
2021/12/19 13:24:55;;;;;;;24.00;21.63;;;4.40;90.10;;;;;;4971882;28;20230;-72
2021/12/19 13:27:24;;;;;;;25.08;23.17;;;4.60;89.10;;;;;;5002586;28;20551;-72
2021/12/19 13:30:16;;;;;;;24.15;22.27;;;4.60;88.90;;;;;;5032784;28;20201;-72
2021/12/19 13:32:45;;;;;;;24.30;22.65;;;4.50;89.10;;;;;;5032621;28;20193;-72
2021/12/19 13:35:24;;;;;;;25.15;23.15;;;4.60;90.10;;;;;;5032774;28;20220;-73
2021/12/19 13:37:58;;;;;;;22.13;20.70;;;4.70;89.10;;;;;;5032670;28;20256;-73
2021/12/19 13:40:26;;;;;;;1449.40;191.80;;;4.70;89.80;;;;;;5032586;28;20205;-73